sensor_id;sensor_type;location;lat;lon;timestamp;pressure;altitude;pressure_sealevel;temperature;humidity
3668;BME280;24099;47.102;15.440;2022-12-29T00:01:44;97422.59;;;-1.90;100.00
3668;BME280;24099;47.102;15.440;2022-12-29T00:04:13;97429.41;;;-1.89;100.00
3668;BME280;24099;47.102;15.440;2022-12-29T00:06:42;97426.53;;;-1.85;100.00
3668;BME280;24099;47.102;15.440;2022-12-29T00:09:12;97420.78;;;-1.76;100.00
3668;BME280;24099;47.102;15.440;2022-12-29T00:11:43;97431.91;;;-1.75;100.00
3668;BME280;24099;47.102;15.440;2022-12-29T00:14:11;97425.81;;;-1.87;100.00
3668;BME280;24099;47.102;15.440;2022-12-29T00:16:58;97427.38;;;-1.84;100.00
3668;BME280;24099;47.102;15.440;2022-12-29T00:19:26;97425.72;;;-1.85;100.00
3668;BME280;24099;47.102;15.440;2022-12-29T00:22:13;97426.66;;;-1.74;100.00
3668;BME280;24099;47.102;15.440;2022-12-29T00:24:59;97420.13;;;-1.79;100.00
3668;BME280;24099;47.102;15.440;2022-12-29T00:27:44;97413.13;;;-1.77;100.00
3668;BME280;24099;47.102;15.440;2022-12-29T00:30:32;97416.53;;;-1.77;100.00
3668;BME280;24099;47.102;15.440;2022-12-29T00:33:19;97409.78;;;-2.04;100.00
3668;BME280;24099;47.102;15.440;2022-12-29T00:36:08;97407.69;;;-1.99;100.00
3668;BME280;24099;47.102;15.440;2022-12-29T00:38:40;97410.59;;;-2.04;100.00
3668;BME280;24099;47.102;15.440;2022-12-29T00:41:28;97402.34;;;-1.96;100.00
3668;BME280;24099;47.102;15.440;2022-12-29T00:44:15;97407.13;;;-1.90;100.00
3668;BME280;24099;47.102;15.440;2022-12-29T00:46:44;97404.31;;;-2.00;100.00
3668;BME280;24099;47.102;15.440;2022-12-29T00:49:14;97411.84;;;-1.97;100.00
3668;BME280;24099;47.102;15.440;2022-12-29T00:51:58;97408.31;;;-2.09;100.00
3668;BME280;24099;47.102;15.440;2022-12-29T00:54:29;97392.66;;;-2.05;100.00
3668;BME280;24099;47.102;15.440;2022-12-29T00:56:58;97402.53;;;-1.99;100.00
3668;BME280;24099;47.102;15.440;2022-12-29T00:59:26;97394.50;;;-2.08;100.00
3668;BME280;24099;47.102;15.440;2022-12-29T01:01:57;97402.28;;;-2.22;100.00
3668;BME280;24099;47.102;15.440;2022-12-29T01:04:26;97395.47;;;-2.23;100.00
3668;BME280;24099;47.102;15.440;2022-12-29T01:06:54;97404.38;;;-2.14;100.00
3668;BME280;24099;47.102;15.440;2022-12-29T01:09:22;97404.63;;;-2.04;100.00
3668;BME280;24099;47.102;15.440;2022-12-29T01:12:09;97406.47;;;-2.06;100.00
3668;BME280;24099;47.102;15.440;2022-12-29T01:14:38;97404.63;;;-2.04;100.00
3668;BME280;24099;47.102;15.440;2022-12-29T01:17:12;97411.34;;;-2.02;100.00
3668;BME280;24099;47.102;15.440;2022-12-29T01:19:46;97402.41;;;-2.11;100.00
3668;BME280;24099;47.102;15.440;2022-12-29T01:22:14;97410.50;;;-2.29;100.00
3668;BME280;24099;47.102;15.440;2022-12-29T01:24:42;97409.94;;;-2.20;100.00
3668;BME280;24099;47.102;15.440;2022-12-29T01:27:13;97408.38;;;-2.23;100.00
3668;BME280;24099;47.102;15.440;2022-12-29T01:29:42;97416.47;;;-2.29;100.00
3668;BME280;24099;47.102;15.440;2022-12-29T01:32:12;97409.81;;;-2.19;100.00
3668;BME280;24099;47.102;15.440;2022-12-29T01:34:40;97407.81;;;-2.28;100.00
3668;BME280;24099;47.102;15.440;2022-12-29T01:37:10;97411.78;;;-2.36;100.00
3668;BME280;24099;47.102;15.440;2022-12-29T01:39:38;97402.03;;;-2.31;100.00
3668;BME280;24099;47.102;15.440;2022-12-29T01:42:08;97411.03;;;-2.24;100.00
3668;BME280;24099;47.102;15.440;2022-12-29T01:44:54;97399.63;;;-2.34;100.00
3668;BME280;24099;47.102;15.440;2022-12-29T01:47:36;97391.16;;;-2.22;100.00
3668;BME280;24099;47.102;15.440;2022-12-29T01:50:33;97406.25;;;-2.30;100.00
3668;BME280;24099;47.102;15.440;2022-12-29T01:53:07;97378.19;;;-2.35;100.00
3668;BME280;24099;47.102;15.440;2022-12-29T01:55:44;97373.13;;;-2.36;100.00
3668;BME280;24099;47.102;15.440;2022-12-29T01:58:15;97372.84;;;-2.32;100.00
3668;BME280;24099;47.102;15.440;2022-12-29T02:00:45;97366.78;;;-2.31;100.00
3668;BME280;24099;47.102;15.440;2022-12-29T02:03:18;97372.22;;;-2.35;100.00
3668;BME280;24099;47.102;15.440;2022-12-29T02:05:52;97369.63;;;-2.35;100.00
3668;BME280;24099;47.102;15.440;2022-12-29T02:08:26;97375.53;;;-2.33;100.00
3668;BME280;24099;47.102;15.440;2022-12-29T02:10:55;97375.28;;;-2.43;100.00
3668;BME280;24099;47.102;15.440;2022-12-29T02:13:24;97366.41;;;-2.39;100.00
3668;BME280;24099;47.102;15.440;2022-12-29T02:16:02;97365.09;;;-2.45;100.00
3668;BME280;24099;47.102;15.440;2022-12-29T02:18:39;97354.31;;;-2.51;100.00
3668;BME280;24099;47.102;15.440;2022-12-29T02:21:41;97357.78;;;-2.38;100.00
3668;BME280;24099;47.102;15.440;2022-12-29T02:27:55;97350.13;;;-2.39;100.00
3668;BME280;24099;47.102;15.440;2022-12-29T02:30:44;97352.09;;;-2.43;100.00
3668;BME280;24099;47.102;15.440;2022-12-29T02:33:21;97352.00;;;-2.41;100.00
3668;BME280;24099;47.102;15.440;2022-12-29T02:35:56;97353.94;;;-2.45;100.00
3668;BME280;24099;47.102;15.440;2022-12-29T02:38:42;97342.72;;;-2.44;100.00
3668;BME280;24099;47.102;15.440;2022-12-29T02:41:19;97344.31;;;-2.29;100.00
3668;BME280;24099;47.102;15.440;2022-12-29T02:43:54;97346.44;;;-2.35;100.00
3668;BME280;24099;47.102;15.440;2022-12-29T02:46:29;97341.72;;;-2.29;100.00
3668;BME280;24099;47.102;15.440;2022-12-29T02:49:01;97340.06;;;-2.30;100.00
3668;BME280;24099;47.102;15.440;2022-12-29T02:51:35;97337.50;;;-2.30;100.00
3668;BME280;24099;47.102;15.440;2022-12-29T02:54:07;97337.16;;;-2.38;100.00
3668;BME280;24099;47.102;15.440;2022-12-29T02:56:52;97336.97;;;-2.35;100.00
3668;BME280;24099;47.102;15.440;2022-12-29T02:59:20;97332.81;;;-2.37;100.00
3668;BME280;24099;47.102;15.440;2022-12-29T03:02:09;97338.53;;;-2.32;100.00
3668;BME280;24099;47.102;15.440;2022-12-29T03:08:26;97338.72;;;-2.35;100.00
3668;BME280;24099;47.102;15.440;2022-12-29T03:11:07;97342.84;;;-2.33;100.00
3668;BME280;24099;47.102;15.440;2022-12-29T03:14:46;97340.13;;;-2.44;100.00
3668;BME280;24099;47.102;15.440;2022-12-29T03:17:51;97338.31;;;-2.42;100.00
3668;BME280;24099;47.102;15.440;2022-12-29T03:20:34;97339.25;;;-2.57;100.00
3668;BME280;24099;47.102;15.440;2022-12-29T03:23:09;97333.34;;;-2.45;100.00
3668;BME280;24099;47.102;15.440;2022-12-29T03:25:42;97343.69;;;-2.32;100.00
3668;BME280;24099;47.102;15.440;2022-12-29T03:28:13;97321.03;;;-2.54;100.00
3668;BME280;24099;47.102;15.440;2022-12-29T03:30:47;97328.09;;;-2.44;100.00
3668;BME280;24099;47.102;15.440;2022-12-29T03:33:21;97331.03;;;-2.50;100.00
3668;BME280;24099;47.102;15.440;2022-12-29T03:35:53;97327.53;;;-2.49;100.00
3668;BME280;24099;47.102;15.440;2022-12-29T03:38:27;97320.19;;;-2.55;100.00
3668;BME280;24099;47.102;15.440;2022-12-29T03:40:59;97325.19;;;-2.39;100.00
3668;BME280;24099;47.102;15.440;2022-12-29T03:43:31;97323.75;;;-2.43;100.00
3668;BME280;24099;47.102;15.440;2022-12-29T03:46:02;97319.94;;;-2.37;100.00
3668;BME280;24099;47.102;15.440;2022-12-29T03:48:31;97322.88;;;-2.29;100.00
3668;BME280;24099;47.102;15.440;2022-12-29T03:50:59;97323.31;;;-2.50;100.00
3668;BME280;24099;47.102;15.440;2022-12-29T03:53:28;97332.25;;;-2.55;100.00
3668;BME280;24099;47.102;15.440;2022-12-29T03:55:56;97328.59;;;-2.38;100.00
3668;BME280;24099;47.102;15.440;2022-12-29T03:58:24;97332.91;;;-2.39;100.00
3668;BME280;24099;47.102;15.440;2022-12-29T04:01:01;97331.00;;;-2.62;100.00
3668;BME280;24099;47.102;15.440;2022-12-29T04:03:34;97337.94;;;-2.50;100.00
3668;BME280;24099;47.102;15.440;2022-12-29T04:06:02;97336.84;;;-2.46;100.00
3668;BME280;24099;47.102;15.440;2022-12-29T04:08:38;97328.81;;;-2.41;100.00
3668;BME280;24099;47.102;15.440;2022-12-29T04:11:32;97331.09;;;-2.64;100.00
3668;BME280;24099;47.102;15.440;2022-12-29T04:14:14;97329.16;;;-2.60;100.00
3668;BME280;24099;47.102;15.440;2022-12-29T04:16:42;97331.75;;;-2.60;100.00
3668;BME280;24099;47.102;15.440;2022-12-29T04:19:16;97332.25;;;-2.55;100.00
3668;BME280;24099;47.102;15.440;2022-12-29T04:21:45;97329.78;;;-2.57;100.00
3668;BME280;24099;47.102;15.440;2022-12-29T04:24:13;97336.47;;;-2.54;100.00
3668;BME280;24099;47.102;15.440;2022-12-29T04:26:42;97325.50;;;-2.44;100.00
3668;BME280;24099;47.102;15.440;2022-12-29T04:29:42;97331.88;;;-2.49;100.00
3668;BME280;24099;47.102;15.440;2022-12-29T04:32:23;97327.63;;;-2.50;100.00
3668;BME280;24099;47.102;15.440;2022-12-29T04:34:56;97327.06;;;-2.41;100.00
3668;BME280;24099;47.102;15.440;2022-12-29T04:37:24;97327.69;;;-2.64;100.00
3668;BME280;24099;47.102;15.440;2022-12-29T04:39:53;97332.25;;;-2.55;100.00
3668;BME280;24099;47.102;15.440;2022-12-29T04:42:27;97335.38;;;-2.50;100.00
3668;BME280;24099;47.102;15.440;2022-12-29T04:44:55;97327.50;;;-2.61;100.00
3668;BME280;24099;47.102;15.440;2022-12-29T04:47:52;97324.03;;;-2.74;100.00
3668;BME280;24099;47.102;15.440;2022-12-29T04:50:46;97324.47;;;-2.68;100.00
3668;BME280;24099;47.102;15.440;2022-12-29T04:53:19;97321.84;;;-2.54;100.00
3668;BME280;24099;47.102;15.440;2022-12-29T04:55:51;97321.91;;;-2.68;100.00
3668;BME280;24099;47.102;15.440;2022-12-29T04:58:21;97330.22;;;-2.50;100.00
3668;BME280;24099;47.102;15.440;2022-12-29T05:00:49;97330.22;;;-2.50;100.00
3668;BME280;24099;47.102;15.440;2022-12-29T05:03:17;97324.19;;;-2.63;100.00
3668;BME280;24099;47.102;15.440;2022-12-29T05:05:47;97315.19;;;-2.70;100.00
3668;BME280;24099;47.102;15.440;2022-12-29T05:08:15;97321.56;;;-2.49;100.00
3668;BME280;24099;47.102;15.440;2022-12-29T05:10:45;97325.63;;;-2.59;100.00
3668;BME280;24099;47.102;15.440;2022-12-29T05:13:31;97324.94;;;-2.61;100.00
3668;BME280;24099;47.102;15.440;2022-12-29T05:15:59;97332.88;;;-2.79;100.00
3668;BME280;24099;47.102;15.440;2022-12-29T05:18:28;97334.34;;;-2.74;100.00
3668;BME280;24099;47.102;15.440;2022-12-29T05:20:59;97337.16;;;-2.65;100.00
3668;BME280;24099;47.102;15.440;2022-12-29T05:23:28;97335.81;;;-2.70;100.00
3668;BME280;24099;47.102;15.440;2022-12-29T05:26:02;97334.34;;;-2.74;100.00
3668;BME280;24099;47.102;15.440;2022-12-29T05:28:39;97341.69;;;-2.68;100.00
3668;BME280;24099;47.102;15.440;2022-12-29T05:31:18;97343.09;;;-2.50;100.00
3668;BME280;24099;47.102;15.440;2022-12-29T05:33:48;97351.72;;;-2.78;100.00
3668;BME280;24099;47.102;15.440;2022-12-29T05:36:17;97346.19;;;-2.72;100.00
3668;BME280;24099;47.102;15.440;2022-12-29T05:38:59;97346.66;;;-2.65;100.00
3668;BME280;24099;47.102;15.440;2022-12-29T05:41:27;97341.78;;;-2.70;100.00
3668;BME280;24099;47.102;15.440;2022-12-29T05:44:04;97347.22;;;-2.74;100.00
3668;BME280;24099;47.102;15.440;2022-12-29T05:47:01;97346.13;;;-2.85;100.00
3668;BME280;24099;47.102;15.440;2022-12-29T05:50:07;97342.50;;;-2.68;100.00
3668;BME280;24099;47.102;15.440;2022-12-29T05:52:55;97352.00;;;-2.68;100.00
3668;BME280;24099;47.102;15.440;2022-12-29T05:55:26;97351.41;;;-2.59;100.00
3668;BME280;24099;47.102;15.440;2022-12-29T05:57:54;97343.88;;;-2.62;100.00
3668;BME280;24099;47.102;15.440;2022-12-29T06:00:22;97344.00;;;-2.78;100.00
3668;BME280;24099;47.102;15.440;2022-12-29T06:02:59;97349.41;;;-2.68;100.00
3668;BME280;24099;47.102;15.440;2022-12-29T06:05:27;97347.31;;;-2.76;100.00
3668;BME280;24099;47.102;15.440;2022-12-29T06:07:57;97360.50;;;-2.81;100.00
3668;BME280;24099;47.102;15.440;2022-12-29T06:10:25;97358.34;;;-2.74;100.00
3668;BME280;24099;47.102;15.440;2022-12-29T06:12:59;97364.06;;;-2.83;100.00
3668;BME280;24099;47.102;15.440;2022-12-29T06:15:27;97368.72;;;-2.75;100.00
3668;BME280;24099;47.102;15.440;2022-12-29T06:17:55;97363.91;;;-2.53;100.00
3668;BME280;24099;47.102;15.440;2022-12-29T06:20:29;97359.72;;;-2.68;100.00
3668;BME280;24099;47.102;15.440;2022-12-29T06:23:01;97370.06;;;-2.83;100.00
3668;BME280;24099;47.102;15.440;2022-12-29T06:25:31;97370.28;;;-2.73;100.00
3668;BME280;24099;47.102;15.440;2022-12-29T06:28:00;97361.66;;;-2.72;100.00
3668;BME280;24099;47.102;15.440;2022-12-29T06:30:28;97373.50;;;-2.69;100.00
3668;BME280;24099;47.102;15.440;2022-12-29T06:32:58;97373.41;;;-2.68;100.00
3668;BME280;24099;47.102;15.440;2022-12-29T06:35:30;97369.47;;;-2.73;100.00
3668;BME280;24099;47.102;15.440;2022-12-29T06:37:58;97362.28;;;-2.68;100.00
3668;BME280;24099;47.102;15.440;2022-12-29T06:40:27;97371.72;;;-2.82;100.00
3668;BME280;24099;47.102;15.440;2022-12-29T06:43:16;97376.97;;;-2.56;100.00
3668;BME280;24099;47.102;15.440;2022-12-29T06:46:04;97379.84;;;-2.61;100.00
3668;BME280;24099;47.102;15.440;2022-12-29T06:48:32;97378.84;;;-2.72;100.00
3668;BME280;24099;47.102;15.440;2022-12-29T06:51:00;97378.38;;;-2.65;100.00
3668;BME280;24099;47.102;15.440;2022-12-29T06:53:33;97376.59;;;-2.50;100.00
3668;BME280;24099;47.102;15.440;2022-12-29T06:56:25;97383.13;;;-2.59;100.00
3668;BME280;24099;47.102;15.440;2022-12-29T06:58:53;97380.38;;;-2.56;100.00
3668;BME280;24099;47.102;15.440;2022-12-29T07:01:21;97390.22;;;-2.48;100.00
3668;BME280;24099;47.102;15.440;2022-12-29T07:03:49;97383.72;;;-2.68;100.00
3668;BME280;24099;47.102;15.440;2022-12-29T07:06:17;97379.25;;;-2.52;100.00
3668;BME280;24099;47.102;15.440;2022-12-29T07:08:45;97381.84;;;-2.52;100.00
3668;BME280;24099;47.102;15.440;2022-12-29T07:11:13;97376.97;;;-2.56;100.00
3668;BME280;24099;47.102;15.440;2022-12-29T07:13:46;97381.78;;;-2.64;100.00
3668;BME280;24099;47.102;15.440;2022-12-29T07:16:17;97381.84;;;-2.52;100.00
3668;BME280;24099;47.102;15.440;2022-12-29T07:18:55;97385.16;;;-2.50;100.00
3668;BME280;24099;47.102;15.440;2022-12-29T07:21:24;97386.63;;;-2.46;100.00
3668;BME280;24099;47.102;15.440;2022-12-29T07:23:52;97382.81;;;-2.13;100.00
3668;BME280;24099;47.102;15.440;2022-12-29T07:26:21;97381.03;;;-2.25;100.00
3668;BME280;24099;47.102;15.440;2022-12-29T07:28:50;97386.81;;;-2.22;100.00
3668;BME280;24099;47.102;15.440;2022-12-29T07:31:20;97374.78;;;-2.09;100.00
3668;BME280;24099;47.102;15.440;2022-12-29T07:33:48;97384.66;;;-2.15;100.00
3668;BME280;24099;47.102;15.440;2022-12-29T07:36:16;97395.25;;;-2.20;100.00
3668;BME280;24099;47.102;15.440;2022-12-29T07:38:44;97395.25;;;-2.20;100.00
3668;BME280;24099;47.102;15.440;2022-12-29T07:41:12;97399.63;;;-2.20;100.00
3668;BME280;24099;47.102;15.440;2022-12-29T07:43:40;97393.31;;;-2.16;100.00
3668;BME280;24099;47.102;15.440;2022-12-29T07:46:27;97391.56;;;-2.16;100.00
3668;BME280;24099;47.102;15.440;2022-12-29T07:50:14;97386.22;;;-2.13;100.00
3668;BME280;24099;47.102;15.440;2022-12-29T07:52:02;97396.06;;;-2.05;100.00
3668;BME280;24099;47.102;15.440;2022-12-29T07:54:29;97403.91;;;-1.94;100.00
3668;BME280;24099;47.102;15.440;2022-12-29T07:56:57;97398.34;;;-2.00;100.00
3668;BME280;24099;47.102;15.440;2022-12-29T07:59:26;97394.88;;;-2.14;100.00
3668;BME280;24099;47.102;15.440;2022-12-29T08:01:56;97409.03;;;-2.06;100.00
3668;BME280;24099;47.102;15.440;2022-12-29T08:04:24;97406.78;;;-1.98;100.00
3668;BME280;24099;47.102;15.440;2022-12-29T08:06:55;97403.09;;;-1.94;100.00
3668;BME280;24099;47.102;15.440;2022-12-29T08:09:23;97400.31;;;-1.91;100.00
3668;BME280;24099;47.102;15.440;2022-12-29T08:11:54;97404.19;;;-1.98;100.00
3668;BME280;24099;47.102;15.440;2022-12-29T08:14:22;97401.97;;;-1.90;100.00
3668;BME280;24099;47.102;15.440;2022-12-29T08:16:54;97396.41;;;-1.84;100.00
3668;BME280;24099;47.102;15.440;2022-12-29T08:19:23;97399.00;;;-1.84;100.00
3668;BME280;24099;47.102;15.440;2022-12-29T08:21:59;97398.66;;;-1.80;100.00
3668;BME280;24099;47.102;15.440;2022-12-29T08:24:28;97394.88;;;-1.74;100.00
3668;BME280;24099;47.102;15.440;2022-12-29T08:26:56;97399.09;;;-1.73;100.00
3668;BME280;24099;47.102;15.440;2022-12-29T08:29:24;97392.44;;;-1.63;100.00
3668;BME280;24099;47.102;15.440;2022-12-29T08:31:51;97402.22;;;-1.55;100.00
3668;BME280;24099;47.102;15.440;2022-12-29T08:34:24;97399.44;;;-1.52;100.00
3668;BME280;24099;47.102;15.440;2022-12-29T08:36:51;97398.63;;;-1.53;100.00
3668;BME280;24099;47.102;15.440;2022-12-29T08:39:19;97395.41;;;-1.56;100.00
3668;BME280;24099;47.102;15.440;2022-12-29T08:41:49;97401.09;;;-1.51;100.00
3668;BME280;24099;47.102;15.440;2022-12-29T08:44:17;97403.59;;;-1.50;100.00
3668;BME280;24099;47.102;15.440;2022-12-29T08:46:44;97398.75;;;-1.42;100.00
3668;BME280;24099;47.102;15.440;2022-12-29T08:49:12;97402.47;;;-1.46;100.00
3668;BME280;24099;47.102;15.440;2022-12-29T08:51:45;97398.31;;;-1.48;100.00
3668;BME280;24099;47.102;15.440;2022-12-29T08:54:13;97400.50;;;-1.29;100.00
3668;BME280;24099;47.102;15.440;2022-12-29T08:56:41;97405.75;;;-1.18;100.00
3668;BME280;24099;47.102;15.440;2022-12-29T08:59:09;97411.44;;;-1.13;100.00
3668;BME280;24099;47.102;15.440;2022-12-29T09:01:38;97393.19;;;-1.23;100.00
3668;BME280;24099;47.102;15.440;2022-12-29T09:04:07;97407.94;;;-1.12;100.00
3668;BME280;24099;47.102;15.440;2022-12-29T09:06:35;97410.91;;;-0.93;100.00
3668;BME280;24099;47.102;15.440;2022-12-29T09:09:04;97409.56;;;-0.86;100.00
3668;BME280;24099;47.102;15.440;2022-12-29T09:11:32;97411.06;;;-0.58;100.00
3668;BME280;24099;47.102;15.440;2022-12-29T09:14:00;97408.81;;;-0.62;100.00
3668;BME280;24099;47.102;15.440;2022-12-29T09:16:28;97412.28;;;-0.51;100.00
3668;BME280;24099;47.102;15.440;2022-12-29T09:18:56;97414.31;;;-0.07;100.00
3668;BME280;24099;47.102;15.440;2022-12-29T09:21:24;97414.47;;;0.03;100.00
3668;BME280;24099;47.102;15.440;2022-12-29T09:23:51;97412.44;;;0.65;100.00
3668;BME280;24099;47.102;15.440;2022-12-29T09:26:20;97414.41;;;0.97;100.00
3668;BME280;24099;47.102;15.440;2022-12-29T09:28:48;97414.97;;;1.23;100.00
3668;BME280;24099;47.102;15.440;2022-12-29T09:31:16;97409.56;;;1.15;100.00
3668;BME280;24099;47.102;15.440;2022-12-29T09:33:43;97410.59;;;1.57;100.00
3668;BME280;24099;47.102;15.440;2022-12-29T09:36:11;97411.66;;;1.43;100.00
3668;BME280;24099;47.102;15.440;2022-12-29T09:38:39;97404.09;;;1.62;100.00
3668;BME280;24099;47.102;15.440;2022-12-29T09:41:14;97400.75;;;1.17;100.00
3668;BME280;24099;47.102;15.440;2022-12-29T09:43:56;97401.31;;;1.21;100.00
3668;BME280;24099;47.102;15.440;2022-12-29T09:46:27;97403.25;;;1.73;100.00
3668;BME280;24099;47.102;15.440;2022-12-29T09:49:05;97397.41;;;1.49;100.00
3668;BME280;24099;47.102;15.440;2022-12-29T09:51:36;97393.16;;;1.48;100.00
3668;BME280;24099;47.102;15.440;2022-12-29T09:54:20;97383.53;;;1.38;100.00
3668;BME280;24099;47.102;15.440;2022-12-29T09:56:51;97375.97;;;1.35;100.00
3668;BME280;24099;47.102;15.440;2022-12-29T09:59:24;97376.06;;;1.45;100.00
3668;BME280;24099;47.102;15.440;2022-12-29T10:01:59;97363.69;;;1.60;100.00
3668;BME280;24099;47.102;15.440;2022-12-29T10:04:32;97357.91;;;1.56;100.00
3668;BME280;24099;47.102;15.440;2022-12-29T10:07:03;97347.59;;;1.77;100.00
3668;BME280;24099;47.102;15.440;2022-12-29T10:09:37;97345.41;;;1.93;100.00
3668;BME280;24099;47.102;15.440;2022-12-29T10:12:16;97335.63;;;2.18;100.00
3668;BME280;24099;47.102;15.440;2022-12-29T10:15:01;97334.91;;;3.68;100.00
3668;BME280;24099;47.102;15.440;2022-12-29T10:17:36;97317.63;;;3.67;100.00
3668;BME280;24099;47.102;15.440;2022-12-29T10:20:22;97294.88;;;3.50;100.00
3668;BME280;24099;47.102;15.440;2022-12-29T10:23:08;97285.06;;;3.72;100.00
3668;BME280;24099;47.102;15.440;2022-12-29T10:25:42;97263.69;;;3.98;100.00
3668;BME280;24099;47.102;15.440;2022-12-29T10:28:19;97248.84;;;4.08;100.00
3668;BME280;24099;47.102;15.440;2022-12-29T10:30:50;97244.88;;;4.13;100.00
3668;BME280;24099;47.102;15.440;2022-12-29T10:33:21;97233.59;;;4.97;100.00
3668;BME280;24099;47.102;15.440;2022-12-29T10:35:51;97221.81;;;5.73;100.00
3668;BME280;24099;47.102;15.440;2022-12-29T10:38:25;97211.69;;;5.35;100.00
3668;BME280;24099;47.102;15.440;2022-12-29T10:40:58;97202.59;;;5.39;100.00
3668;BME280;24099;47.102;15.440;2022-12-29T10:43:29;97207.31;;;5.08;100.00
3668;BME280;24099;47.102;15.440;2022-12-29T10:46:02;97212.09;;;4.85;100.00
3668;BME280;24099;47.102;15.440;2022-12-29T10:48:34;97210.44;;;4.94;100.00
3668;BME280;24099;47.102;15.440;2022-12-29T10:51:04;97217.56;;;5.19;100.00
3668;BME280;24099;47.102;15.440;2022-12-29T10:53:37;97218.63;;;4.99;100.00
3668;BME280;24099;47.102;15.440;2022-12-29T10:56:13;97215.13;;;5.53;100.00
3668;BME280;24099;47.102;15.440;2022-12-29T10:58:42;97202.97;;;6.05;100.00
3668;BME280;24099;47.102;15.440;2022-12-29T11:01:13;97186.69;;;6.71;100.00
3668;BME280;24099;47.102;15.440;2022-12-29T11:03:51;97195.06;;;6.15;100.00
3668;BME280;24099;47.102;15.440;2022-12-29T11:06:26;97194.97;;;5.99;100.00
3668;BME280;24099;47.102;15.440;2022-12-29T11:08:57;97191.72;;;5.87;100.00
3668;BME280;24099;47.102;15.440;2022-12-29T11:11:28;97186.94;;;5.82;100.00
3668;BME280;24099;47.102;15.440;2022-12-29T11:14:08;97188.66;;;6.09;100.00
3668;BME280;24099;47.102;15.440;2022-12-29T11:16:39;97190.81;;;6.14;100.00
3668;BME280;24099;47.102;15.440;2022-12-29T11:19:20;97185.53;;;6.32;100.00
3668;BME280;24099;47.102;15.440;2022-12-29T11:21:48;97183.34;;;6.53;100.00
3668;BME280;24099;47.102;15.440;2022-12-29T11:24:22;97184.09;;;6.71;100.00
3668;BME280;24099;47.102;15.440;2022-12-29T11:26:52;97177.53;;;6.67;100.00
3668;BME280;24099;47.102;15.440;2022-12-29T11:29:28;97174.91;;;6.67;100.00
3668;BME280;24099;47.102;15.440;2022-12-29T11:31:59;97175.38;;;6.63;100.00
3668;BME280;24099;47.102;15.440;2022-12-29T11:34:37;97169.56;;;6.77;100.00
3668;BME280;24099;47.102;15.440;2022-12-29T11:37:09;97173.09;;;7.10;100.00
3668;BME280;24099;47.102;15.440;2022-12-29T11:39:41;97175.06;;;7.16;100.00
3668;BME280;24099;47.102;15.440;2022-12-29T11:42:15;97171.59;;;7.07;100.00
3668;BME280;24099;47.102;15.440;2022-12-29T11:44:45;97169.66;;;7.09;100.00
3668;BME280;24099;47.102;15.440;2022-12-29T11:47:25;97163.75;;;6.99;100.00
3668;BME280;24099;47.102;15.440;2022-12-29T11:49:56;97161.81;;;7.25;100.00
3668;BME280;24099;47.102;15.440;2022-12-29T11:52:27;97167.56;;;7.45;100.00
3668;BME280;24099;47.102;15.440;2022-12-29T11:54:56;97166.13;;;7.59;100.00
3668;BME280;24099;47.102;15.440;2022-12-29T11:57:25;97166.63;;;7.54;100.00
3668;BME280;24099;47.102;15.440;2022-12-29T11:59:53;97165.31;;;7.75;100.00
3668;BME280;24099;47.102;15.440;2022-12-29T12:02:42;97160.41;;;7.72;100.00
3668;BME280;24099;47.102;15.440;2022-12-29T12:05:28;97155.81;;;7.66;100.00
3668;BME280;24099;47.102;15.440;2022-12-29T12:08:04;97152.22;;;7.75;100.00
3668;BME280;24099;47.102;15.440;2022-12-29T12:10:38;97146.47;;;7.71;100.00
3668;BME280;24099;47.102;15.440;2022-12-29T12:13:25;97146.13;;;7.82;100.00
3668;BME280;24099;47.102;15.440;2022-12-29T12:16:02;97152.03;;;7.92;100.00
3668;BME280;24099;47.102;15.440;2022-12-29T12:18:40;97146.63;;;7.94;100.00
3668;BME280;24099;47.102;15.440;2022-12-29T12:21:14;97139.22;;;8.06;100.00
3668;BME280;24099;47.102;15.440;2022-12-29T12:24:01;97135.47;;;8.08;100.00
3668;BME280;24099;47.102;15.440;2022-12-29T12:26:36;97136.63;;;7.89;100.00
3668;BME280;24099;47.102;15.440;2022-12-29T12:29:12;97131.13;;;8.32;100.00
3668;BME280;24099;47.102;15.440;2022-12-29T12:31:46;97131.41;;;7.98;100.00
3668;BME280;24099;47.102;15.440;2022-12-29T12:34:22;97123.66;;;8.04;100.00
3668;BME280;24099;47.102;15.440;2022-12-29T12:42:57;97116.06;;;8.25;100.00
3668;BME280;24099;47.102;15.440;2022-12-29T12:45:50;97117.66;;;8.51;100.00
3668;BME280;24099;47.102;15.440;2022-12-29T12:48:35;97115.53;;;8.54;100.00
3668;BME280;24099;47.102;15.440;2022-12-29T12:51:17;97113.84;;;8.61;100.00
3668;BME280;24099;47.102;15.440;2022-12-29T12:53:59;97115.47;;;8.62;100.00
3668;BME280;24099;47.102;15.440;2022-12-29T12:56:43;97115.22;;;8.49;100.00
3668;BME280;24099;47.102;15.440;2022-12-29T12:59:24;97117.00;;;8.49;100.00
3668;BME280;24099;47.102;15.440;2022-12-29T13:02:03;97114.78;;;8.69;100.00
3668;BME280;24099;47.102;15.440;2022-12-29T13:05:19;97114.22;;;8.81;100.00
3668;BME280;24099;47.102;15.440;2022-12-29T13:07:59;97115.66;;;8.92;100.00
3668;BME280;24099;47.102;15.440;2022-12-29T13:10:41;97117.94;;;8.95;100.00
3668;BME280;24099;47.102;15.440;2022-12-29T13:13:41;97125.69;;;8.57;100.00
3668;BME280;24099;47.102;15.440;2022-12-29T13:16:17;97123.50;;;8.61;100.00
3668;BME280;24099;47.102;15.440;2022-12-29T13:18:55;97120.59;;;8.56;100.00
3668;BME280;24099;47.102;15.440;2022-12-29T13:21:34;97124.06;;;8.48;100.00
3668;BME280;24099;47.102;15.440;2022-12-29T13:24:13;97129.06;;;8.66;100.00
3668;BME280;24099;47.102;15.440;2022-12-29T13:26:46;97124.88;;;8.88;100.00
3668;BME280;24099;47.102;15.440;2022-12-29T13:29:18;97129.63;;;8.45;100.00
3668;BME280;24099;47.102;15.440;2022-12-29T13:31:53;97128.53;;;8.23;100.00
3668;BME280;24099;47.102;15.440;2022-12-29T13:34:32;97127.91;;;8.05;100.00
3668;BME280;24099;47.102;15.440;2022-12-29T13:37:07;97132.50;;;8.11;100.00
3668;BME280;24099;47.102;15.440;2022-12-29T13:39:40;97128.59;;;7.99;100.00
3668;BME280;24099;47.102;15.440;2022-12-29T13:42:11;97133.53;;;7.70;100.00
3668;BME280;24099;47.102;15.440;2022-12-29T13:44:43;97139.56;;;7.21;100.00